Decoded Metar for KARG (WALNUT RIDGE in AR, USA) (IATA:ARG) | Meteo·Mobile Aviation Weather
aviador You're here:

KARG Decoded Metar

WALNUT RIDGE in AR, USA
Report Time2018-11-16 17:56:00
UTC Time2018-11-16 18:45:20
Flight Rules mvfr MVFR
Wind100° at 03 kt
W.Decomp.*RWY 13: 2.6 kt HW 1.5 kt LCW
RWY 04: 1.5 kt HW 2.6 kt RCW
RWY 18: 0.5 kt HW 3 kt LCW
W.Rank100° ranks 31
Current wind is below 100° avg. (5.7)
Visibility6437 m
Phenomena:Haze
Clouds:N/A
Expected CloudBase > 4,400 ft AGL from Temp-Dew spread
CeilingNone
Temp13°C (ISA -1)
Dew Point02°C (47% RH)
AAT10.2°C
QNH1020 hPa
Density Alt-39 ft
Elevation272 ft
Report Wrong Elevation
Raw Report
KARG 161756Z AUTO 10003KT 4SM HZ CLR 13/02 A3013 RMK AO2 SLP206
T01280022 10128 21011 58009=

Extra information for KARG:More info

Metar Taf Metar & Taf Last 4 Metars F.Rules Stats Wind Profile Meteogram Temp Stats Airport Information Weather charts Add Link Nearby VenuesMetar ALERT Operation Metar Decoded Social comments

AIRNAV info for KARG